| time (UTC) | temp F | wind direction | speed MPH | gust MPH | rain 1hr in | rain 24hr in | rain mn in | humidity % | barometer mb |
| 20260508064544 | 47 | 37 | 3.0 | 5.0 | 0.00 | 0.00 | 0.00 | 41 | 1025.3 |
| 20260508063038 | 46 | 319 | 2.0 | 3.0 | 0.00 | 0.00 | 0.00 | 47 | 1025.2 |
| 20260508061535 | 44 | 319 | 2.0 | 3.0 | 0.00 | 0.00 | 0.00 | 48 | 1025.0 |
| 20260508060036 | 43 | 320 | 2.0 | 3.0 | 0.00 | 0.00 | 0.00 | 53 | 1024.8 |
| 20260508054532 | 43 | 320 | 2.0 | 4.0 | 0.00 | 0.00 | 0.00 | 54 | 1024.6 |
| 20260508053028 | 42 | 320 | 2.0 | 4.0 | 0.00 | 0.00 | 0.00 | 58 | 1024.4 |
| 20260508051522 | 41 | 13 | 3.0 | 6.0 | 0.00 | 0.00 | 0.00 | 59 | 1024.1 |
| 20260508050021 | 40 | 315 | 3.0 | 6.0 | 0.00 | 0.00 | 0.00 | 60 | 1023.9 |
| 20260508044519 | 40 | 17 | 4.0 | 9.0 | 0.00 | 0.00 | 0.00 | 62 | 1023.8 |
| 20260508043018 | 39 | 19 | 4.0 | 9.0 | 0.00 | 0.00 | 0.00 | 63 | 1023.7 |
| 20260508041516 | 38 | 22 | 7.0 | 10.0 | 0.00 | 0.00 | 0.00 | 64 | 1023.6 |
| 20260508040027 | 37 | 360 | 4.0 | 8.0 | 0.00 | 0.00 | 0.00 | 64 | 1023.5 |
| 20260508034518 | 37 | 360 | 6.0 | 9.0 | 0.00 | 0.00 | 0.00 | 65 | 1023.4 |
| 20260508033013 | 36 | 319 | 5.0 | 8.0 | 0.00 | 0.00 | 0.00 | 67 | 1023.4 |
| 20260508031511 | 35 | 311 | 5.0 | 9.0 | 0.00 | 0.00 | 0.00 | 67 | 1023.2 |
| 20260508030013 | 35 | 18 | 4.0 | 8.0 | 0.00 | 0.00 | 0.00 | 66 | 1023.2 |
| 20260508024512 | 35 | 5 | 3.0 | 6.0 | 0.00 | 0.00 | 0.00 | 66 | 1023.1 |
| 20260508023007 | 35 | 306 | 5.0 | 9.0 | 0.00 | 0.00 | 0.00 | 66 | 1022.9 |
| 20260508021504 | 35 | 321 | 6.0 | 9.0 | 0.00 | 0.00 | 0.00 | 66 | 1022.7 |
| 20260508020112 | 36 | 289 | 5.0 | 10.0 | 0.00 | 0.00 | 0.00 | 66 | 1022.5 |
| 20260508014620 | 36 | 306 | 5.0 | 9.0 | 0.00 | 0.00 | 0.00 | 66 | 1022.2 |
| 20260508013107 | 36 | 311 | 4.0 | 10.0 | 0.00 | 0.00 | 0.00 | 66 | 1021.9 |
| 20260508011558 | 36 | 360 | 5.0 | 10.0 | 0.00 | 0.00 | 0.00 | 65 | 1021.8 |
| 20260508010054 | 37 | 360 | 4.0 | 9.0 | 0.00 | 0.00 | 0.00 | 63 | 1021.7 |
| 20260508004546 | 38 | 290 | 5.0 | 11.0 | 0.00 | 0.00 | 0.00 | 63 | 1021.5 |
| 20260508003044 | 38 | 309 | 6.0 | 12.0 | 0.00 | 0.00 | 0.00 | 63 | 1021.3 |
| 20260508001549 | 38 | 321 | 8.0 | 12.0 | 0.00 | 0.00 | 0.00 | 62 | 1021.2 |
| 20260508000038 | 39 | 301 | 7.0 | 12.0 | 0.00 | 0.00 | 0.00 | 62 | 1020.9 |
| 20260507234535 | 38 | 306 | 9.0 | 15.0 | 0.00 | 0.00 | 0.00 | 61 | 1020.7 |
| 20260507233034 | 38 | 304 | 8.0 | 14.0 | 0.00 | 0.00 | 0.00 | 61 | 1020.6 |
| 20260507231529 | 38 | 304 | 9.0 | 14.0 | 0.00 | 0.00 | 0.00 | 60 | 1020.4 |
| 20260507230031 | 39 | 316 | 4.0 | 8.0 | 0.00 | 0.00 | 0.00 | 59 | 1020.3 |
| 20260507224530 | 39 | 304 | 3.0 | 8.0 | 0.00 | 0.00 | 0.00 | 58 | 1020.0 |
| 20260507223023 | 39 | 285 | 3.0 | 8.0 | 0.00 | 0.00 | 0.00 | 57 | 1020.0 |
| 20260507221525 | 39 | 295 | 5.0 | 10.0 | 0.00 | 0.00 | 0.00 | 57 | 1019.8 |
| 20260507220019 | 40 | 305 | 6.0 | 11.0 | 0.00 | 0.00 | 0.00 | 55 | 1019.7 |
| 20260507214517 | 40 | 301 | 8.0 | 12.0 | 0.00 | 0.00 | 0.00 | 55 | 1019.6 |
| 20260507213015 | 40 | 303 | 6.0 | 10.0 | 0.00 | 0.00 | 0.00 | 54 | 1019.4 |
| 20260507211527 | 41 | 296 | 6.0 | 9.0 | 0.00 | 0.00 | 0.00 | 52 | 1019.3 |
| 20260507210007 | 42 | 290 | 6.0 | 12.0 | 0.00 | 0.00 | 0.00 | 51 | 1019.1 |
| 20260507204505 | 42 | 302 | 8.0 | 14.0 | 0.00 | 0.00 | 0.00 | 48 | 1018.9 |
| 20260507203002 | 42 | 309 | 8.0 | 13.0 | 0.00 | 0.00 | 0.00 | 47 | 1018.6 |
| 20260507201502 | 43 | 298 | 7.0 | 12.0 | 0.00 | 0.00 | 0.00 | 45 | 1018.5 |
| 20260507200059 | 43 | 291 | 7.0 | 12.0 | 0.00 | 0.00 | 0.00 | 45 | 1018.3 |
| 20260507194607 | 43 | 286 | 6.0 | 10.0 | 0.00 | 0.00 | 0.00 | 44 | 1018.1 |
| 20260507193056 | 44 | 284 | 8.0 | 15.0 | 0.00 | 0.00 | 0.00 | 43 | 1017.9 |
| 20260507191601 | 44 | 293 | 9.0 | 14.0 | 0.00 | 0.00 | 0.00 | 41 | 1017.7 |
| 20260507190052 | 45 | 304 | 7.0 | 13.0 | 0.00 | 0.00 | 0.00 | 39 | 1017.4 |
| 20260507184549 | 46 | 264 | 10.0 | 17.0 | 0.00 | 0.00 | 0.00 | 34 | 1017.2 |
| 20260507183054 | 47 | 301 | 10.0 | 18.0 | 0.00 | 0.00 | 0.00 | 33 | 1017.1 |
| 20260507181547 | 47 | 282 | 12.0 | 17.0 | 0.00 | 0.00 | 0.00 | 30 | 1017.0 |
| 20260507180051 | 48 | 263 | 9.0 | 18.0 | 0.00 | 0.00 | 0.00 | 29 | 1016.7 |
| 20260507174543 | 49 | 284 | 11.0 | 20.0 | 0.00 | 0.00 | 0.00 | 27 | 1016.7 |
| 20260507173055 | 49 | 271 | 10.0 | 20.0 | 0.00 | 0.00 | 0.00 | 26 | 1016.5 |
| 20260507171539 | 50 | 273 | 10.0 | 17.0 | 0.00 | 0.00 | 0.00 | 26 | 1016.3 |
| 20260507170048 | 51 | 267 | 7.0 | 17.0 | 0.00 | 0.00 | 0.00 | 25 | 1016.3 |
| 20260507164535 | 51 | 271 | 11.0 | 19.0 | 0.00 | 0.00 | 0.00 | 22 | 1016.3 |
| 20260507163032 | 51 | 286 | 10.0 | 18.0 | 0.00 | 0.00 | 0.00 | 23 | 1016.2 |
| 20260507161530 | 51 | 248 | 9.0 | 18.0 | 0.00 | 0.00 | 0.00 | 23 | 1016.3 |
| 20260507160029 | 52 | 290 | 10.0 | 17.0 | 0.00 | 0.00 | 0.00 | 29 | 1016.2 |
| 20260507154522 | 52 | 271 | 12.0 | 20.0 | 0.00 | 0.00 | 0.00 | 27 | 1016.1 |
| 20260507153019 | 52 | 272 | 10.0 | 21.0 | 0.00 | 0.00 | 0.00 | 29 | 1016.0 |
| 20260507151520 | 54 | 258 | 10.0 | 19.0 | 0.00 | 0.00 | 0.00 | 28 | 1015.9 |
| 20260507150018 | 54 | 271 | 8.0 | 16.0 | 0.00 | 0.00 | 0.00 | 28 | 1015.8 |
| 20260507144514 | 55 | 313 | 9.0 | 13.0 | 0.00 | 0.00 | 0.00 | 23 | 1015.7 |
| 20260507143012 | 55 | 254 | 5.0 | 9.0 | 0.00 | 0.00 | 0.00 | 26 | 1015.6 |
| 20260507141511 | 54 | 227 | 6.0 | 13.0 | 0.00 | 0.00 | 0.00 | 28 | 1015.6 |
| 20260507140010 | 54 | 220 | 8.0 | 15.0 | 0.00 | 0.00 | 0.00 | 33 | 1015.5 |
| 20260507134509 | 53 | 221 | 11.0 | 16.0 | 0.00 | 0.00 | 0.00 | 35 | 1015.5 |
| 20260507133007 | 52 | 241 | 11.0 | 16.0 | 0.00 | 0.00 | 0.00 | 34 | 1015.5 |
| 20260507131507 | 51 | 217 | 11.0 | 16.0 | 0.00 | 0.00 | 0.00 | 35 | 1015.5 |
| 20260507130005 | 51 | 215 | 14.0 | 18.0 | 0.00 | 0.00 | 0.00 | 35 | 1015.5 |
| 20260507124504 | 51 | 198 | 10.0 | 13.0 | 0.00 | 0.00 | 0.00 | 43 | 1015.5 |
| 20260507123001 | 50 | 216 | 12.0 | 16.0 | 0.00 | 0.00 | 0.00 | 43 | 1015.5 |
| 20260507121501 | 51 | 207 | 10.0 | 12.0 | 0.00 | 0.00 | 0.00 | 43 | 1015.5 |
| 20260507120059 | 54 | 213 | 9.0 | 10.0 | 0.00 | 0.00 | 0.00 | 30 | 1015.4 |
| 20260507114600 | 52 | 196 | 6.0 | 9.0 | 0.00 | 0.00 | 0.00 | 32 | 1015.5 |
| 20260507113056 | 52 | 208 | 7.0 | 10.0 | 0.00 | 0.00 | 0.00 | 34 | 1015.5 |
| 20260507111556 | 53 | 203 | 6.0 | 10.0 | 0.00 | 0.00 | 0.00 | 35 | 1015.5 |
| 20260507104601 | 51 | 209 | 4.0 | 8.0 | 0.00 | 0.00 | 0.00 | 29 | 1015.4 |
| 20260507103125 | 51 | 207 | 5.0 | 8.0 | 0.00 | 0.00 | 0.00 | 34 | 1015.4 |
| 20260507101552 | 52 | 211 | 5.0 | 8.0 | 0.00 | 0.00 | 0.00 | 30 | 1015.2 |
| 20260507100103 | 52 | 206 | 3.0 | 5.0 | 0.00 | 0.00 | 0.00 | 27 | 1015.2 |
| 20260507094550 | 52 | 206 | 3.0 | 5.0 | 0.00 | 0.00 | 0.00 | 35 | 1015.1 |
| 20260507093048 | 55 | 303 | 0.0 | 3.0 | 0.00 | 0.00 | 0.00 | 24 | 1015.1 |
| 20260507091548 | 53 | 269 | 2.0 | 6.0 | 0.00 | 0.00 | 0.00 | 25 | 1015.0 |
| 20260507090054 | 53 | 229 | 2.0 | 4.0 | 0.00 | 0.00 | 0.00 | 25 | 1015.0 |
| 20260507084548 | 52 | 261 | 0.0 | 4.0 | 0.00 | 0.00 | 0.00 | 27 | 1015.0 |
| 20260507083045 | 52 | 41 | 2.0 | 3.0 | 0.00 | 0.00 | 0.00 | 29 | 1015.1 |
| 20260507081542 | 54 | 41 | 1.0 | 2.0 | 0.00 | 0.00 | 0.00 | 28 | 1015.0 |
| 20260507080046 | 53 | 41 | 1.0 | 5.0 | 0.00 | 0.00 | 0.00 | 27 | 1015.1 |
| 20260507074538 | 52 | 11 | 3.0 | 6.0 | 0.00 | 0.00 | 0.00 | 30 | 1015.1 |
| 20260507073039 | 50 | 318 | 4.0 | 6.0 | 0.00 | 0.00 | 0.00 | 35 | 1015.0 |
| 20260507071530 | 49 | 28 | 4.0 | 6.0 | 0.00 | 0.00 | 0.00 | 38 | 1015.0 |
| 20260507070027 | 47 | 9 | 3.0 | 6.0 | 0.00 | 0.00 | 0.00 | 42 | 1015.0 |